Salol, Minnesota
Current Conditions -  °F | °C
As of 6:54 AM on Wednesday 26 Nov 2014 (Local Time) from KROX Reporting Station
Scattered Clouds Scattered Clouds  
Wind Chill: -18°   Ceiling: Unl
Heat Index: -6°   Visibility: 10mi
Dew Point: -11°   Wind: 6mph
Humidity: 77%   Direction: 350°N
Pressure: 30.31"   Gusts: NA
Location:  48.87°N, 95.57°W
Report Text: KROX 261254Z AUTO 35005KT 10SM SCT085 M21/M24 A3031 RMK AO2
Loading
Personal Weather Stations






























Interactive Weather Map New forecast layout! Learn more

10-Day Weather Forecast

Advertisements
Track Severe Weather on mobile